sensor_id;sensor_type;location;lat;lon;timestamp;temperature;humidity
12771;DHT22;6449;47.666;9.160;2023-03-21T00:02:33;7.20;99.90
12771;DHT22;6449;47.666;9.160;2023-03-21T00:07:27;6.80;99.90
12771;DHT22;6449;47.666;9.160;2023-03-21T00:12:22;6.70;99.90
12771;DHT22;6449;47.666;9.160;2023-03-21T00:17:15;6.70;99.90
12771;DHT22;6449;47.666;9.160;2023-03-21T00:22:08;6.60;99.90
12771;DHT22;6449;47.666;9.160;2023-03-21T00:27:02;6.60;99.90
12771;DHT22;6449;47.666;9.160;2023-03-21T00:32:18;6.60;99.90
12771;DHT22;6449;47.666;9.160;2023-03-21T00:37:12;6.60;99.90
12771;DHT22;6449;47.666;9.160;2023-03-21T00:42:08;6.60;99.90
12771;DHT22;6449;47.666;9.160;2023-03-21T00:47:01;6.50;99.90
12771;DHT22;6449;47.666;9.160;2023-03-21T00:52:00;6.40;99.90
12771;DHT22;6449;47.666;9.160;2023-03-21T00:57:14;6.30;99.90
12771;DHT22;6449;47.666;9.160;2023-03-21T01:02:11;6.20;99.90
12771;DHT22;6449;47.666;9.160;2023-03-21T01:07:14;6.10;99.90
12771;DHT22;6449;47.666;9.160;2023-03-21T01:12:08;6.00;99.90
12771;DHT22;6449;47.666;9.160;2023-03-21T01:17:02;6.10;99.90
12771;DHT22;6449;47.666;9.160;2023-03-21T01:21:56;6.10;99.90
12771;DHT22;6449;47.666;9.160;2023-03-21T01:26:51;6.20;99.90
12771;DHT22;6449;47.666;9.160;2023-03-21T01:31:44;6.20;99.90
12771;DHT22;6449;47.666;9.160;2023-03-21T01:36:38;6.30;99.90
12771;DHT22;6449;47.666;9.160;2023-03-21T01:41:33;6.20;99.90
12771;DHT22;6449;47.666;9.160;2023-03-21T01:46:38;6.30;99.90
12771;DHT22;6449;47.666;9.160;2023-03-21T01:51:53;6.40;99.90
12771;DHT22;6449;47.666;9.160;2023-03-21T01:57:06;6.20;99.90
12771;DHT22;6449;47.666;9.160;2023-03-21T02:02:07;6.10;99.90
12771;DHT22;6449;47.666;9.160;2023-03-21T02:07:06;5.90;99.90
12771;DHT22;6449;47.666;9.160;2023-03-21T02:12:04;5.80;99.90
12771;DHT22;6449;47.666;9.160;2023-03-21T02:17:07;5.50;99.90
12771;DHT22;6449;47.666;9.160;2023-03-21T02:28:13;5.80;99.90
12771;DHT22;6449;47.666;9.160;2023-03-21T02:33:31;5.70;99.90
12771;DHT22;6449;47.666;9.160;2023-03-21T02:38:40;5.70;99.90
12771;DHT22;6449;47.666;9.160;2023-03-21T02:43:45;5.60;99.90
12771;DHT22;6449;47.666;9.160;2023-03-21T02:48:51;5.60;99.90
12771;DHT22;6449;47.666;9.160;2023-03-21T02:53:54;5.40;99.90
12771;DHT22;6449;47.666;9.160;2023-03-21T02:59:13;5.30;99.90
12771;DHT22;6449;47.666;9.160;2023-03-21T03:04:23;5.40;99.90
12771;DHT22;6449;47.666;9.160;2023-03-21T03:09:28;5.50;99.90
12771;DHT22;6449;47.666;9.160;2023-03-21T03:14:38;5.40;99.90
12771;DHT22;6449;47.666;9.160;2023-03-21T03:20:04;5.30;99.90
12771;DHT22;6449;47.666;9.160;2023-03-21T03:25:13;5.40;99.90
12771;DHT22;6449;47.666;9.160;2023-03-21T03:30:30;5.30;99.90
12771;DHT22;6449;47.666;9.160;2023-03-21T03:35:37;5.10;99.90
12771;DHT22;6449;47.666;9.160;2023-03-21T03:40:36;5.00;99.90
12771;DHT22;6449;47.666;9.160;2023-03-21T03:45:36;5.00;99.90
12771;DHT22;6449;47.666;9.160;2023-03-21T03:50:37;5.00;99.90
12771;DHT22;6449;47.666;9.160;2023-03-21T03:55:36;4.90;99.90
12771;DHT22;6449;47.666;9.160;2023-03-21T04:00:31;4.80;99.90
12771;DHT22;6449;47.666;9.160;2023-03-21T04:05:26;4.90;99.90
12771;DHT22;6449;47.666;9.160;2023-03-21T04:10:20;5.00;99.90
12771;DHT22;6449;47.666;9.160;2023-03-21T04:15:15;5.00;99.90
12771;DHT22;6449;47.666;9.160;2023-03-21T04:20:10;5.00;99.90
12771;DHT22;6449;47.666;9.160;2023-03-21T04:25:17;4.90;99.90
12771;DHT22;6449;47.666;9.160;2023-03-21T04:30:25;4.70;99.90
12771;DHT22;6449;47.666;9.160;2023-03-21T04:35:19;4.60;99.90
12771;DHT22;6449;47.666;9.160;2023-03-21T04:40:13;4.50;99.90
12771;DHT22;6449;47.666;9.160;2023-03-21T04:45:10;4.60;99.90
12771;DHT22;6449;47.666;9.160;2023-03-21T04:50:06;4.70;99.90
12771;DHT22;6449;47.666;9.160;2023-03-21T04:55:00;4.80;99.90
12771;DHT22;6449;47.666;9.160;2023-03-21T04:59:54;4.80;99.90
12771;DHT22;6449;47.666;9.160;2023-03-21T05:04:47;4.90;99.90
12771;DHT22;6449;47.666;9.160;2023-03-21T05:09:42;5.20;99.90
12771;DHT22;6449;47.666;9.160;2023-03-21T05:14:35;5.30;99.90
12771;DHT22;6449;47.666;9.160;2023-03-21T05:19:30;5.40;99.90
12771;DHT22;6449;47.666;9.160;2023-03-21T05:24:27;5.20;99.90
12771;DHT22;6449;47.666;9.160;2023-03-21T05:29:22;5.20;99.90
12771;DHT22;6449;47.666;9.160;2023-03-21T05:34:15;5.10;99.90
12771;DHT22;6449;47.666;9.160;2023-03-21T05:39:08;4.90;99.90
12771;DHT22;6449;47.666;9.160;2023-03-21T05:44:02;4.90;99.90
12771;DHT22;6449;47.666;9.160;2023-03-21T05:48:57;4.90;99.90
12771;DHT22;6449;47.666;9.160;2023-03-21T05:53:51;5.10;99.90
12771;DHT22;6449;47.666;9.160;2023-03-21T05:58:44;5.20;99.90
12771;DHT22;6449;47.666;9.160;2023-03-21T06:03:38;5.10;99.90
12771;DHT22;6449;47.666;9.160;2023-03-21T06:08:33;5.20;99.90
12771;DHT22;6449;47.666;9.160;2023-03-21T06:13:27;5.40;99.90
12771;DHT22;6449;47.666;9.160;2023-03-21T06:18:22;5.60;99.90
12771;DHT22;6449;47.666;9.160;2023-03-21T06:23:15;5.70;99.90
12771;DHT22;6449;47.666;9.160;2023-03-21T06:28:10;5.80;99.90
12771;DHT22;6449;47.666;9.160;2023-03-21T06:33:03;5.80;99.90
12771;DHT22;6449;47.666;9.160;2023-03-21T06:37:57;5.90;99.90
12771;DHT22;6449;47.666;9.160;2023-03-21T06:42:50;5.90;99.90
12771;DHT22;6449;47.666;9.160;2023-03-21T06:47:45;5.90;99.90
12771;DHT22;6449;47.666;9.160;2023-03-21T06:52:39;5.90;99.90
12771;DHT22;6449;47.666;9.160;2023-03-21T06:57:32;6.00;99.90
12771;DHT22;6449;47.666;9.160;2023-03-21T07:02:26;6.30;99.90
12771;DHT22;6449;47.666;9.160;2023-03-21T07:07:24;6.30;99.90
12771;DHT22;6449;47.666;9.160;2023-03-21T07:12:21;6.30;99.90
12771;DHT22;6449;47.666;9.160;2023-03-21T07:17:15;6.50;99.90
12771;DHT22;6449;47.666;9.160;2023-03-21T07:22:08;6.50;99.90
12771;DHT22;6449;47.666;9.160;2023-03-21T07:27:03;6.50;99.90
12771;DHT22;6449;47.666;9.160;2023-03-21T07:31:56;6.60;99.90
12771;DHT22;6449;47.666;9.160;2023-03-21T07:36:50;6.70;99.90
12771;DHT22;6449;47.666;9.160;2023-03-21T07:41:43;7.00;99.90
12771;DHT22;6449;47.666;9.160;2023-03-21T07:46:38;7.30;99.90
12771;DHT22;6449;47.666;9.160;2023-03-21T07:51:31;7.60;99.90
12771;DHT22;6449;47.666;9.160;2023-03-21T07:56:26;7.70;99.90
12771;DHT22;6449;47.666;9.160;2023-03-21T08:01:19;7.80;99.90
12771;DHT22;6449;47.666;9.160;2023-03-21T08:06:15;7.90;99.90
12771;DHT22;6449;47.666;9.160;2023-03-21T08:11:10;7.90;99.90
12771;DHT22;6449;47.666;9.160;2023-03-21T08:16:04;8.10;99.90
12771;DHT22;6449;47.666;9.160;2023-03-21T08:20:59;8.10;99.90
12771;DHT22;6449;47.666;9.160;2023-03-21T08:25:55;8.10;99.90
12771;DHT22;6449;47.666;9.160;2023-03-21T08:30:49;8.00;99.90
12771;DHT22;6449;47.666;9.160;2023-03-21T08:35:43;8.20;99.90
12771;DHT22;6449;47.666;9.160;2023-03-21T08:40:37;8.10;99.90
12771;DHT22;6449;47.666;9.160;2023-03-21T08:45:32;8.20;99.90
12771;DHT22;6449;47.666;9.160;2023-03-21T08:50:26;8.60;99.90
12771;DHT22;6449;47.666;9.160;2023-03-21T08:55:22;9.00;99.90
12771;DHT22;6449;47.666;9.160;2023-03-21T09:00:16;9.10;99.90
12771;DHT22;6449;47.666;9.160;2023-03-21T09:05:13;9.30;99.90
12771;DHT22;6449;47.666;9.160;2023-03-21T09:10:11;9.80;99.90
12771;DHT22;6449;47.666;9.160;2023-03-21T09:15:13;9.90;99.90
12771;DHT22;6449;47.666;9.160;2023-03-21T09:20:09;10.00;99.90
12771;DHT22;6449;47.666;9.160;2023-03-21T09:25:10;10.10;99.90
12771;DHT22;6449;47.666;9.160;2023-03-21T09:30:06;10.20;99.90
12771;DHT22;6449;47.666;9.160;2023-03-21T09:35:02;10.40;99.90
12771;DHT22;6449;47.666;9.160;2023-03-21T09:39:57;10.70;99.90
12771;DHT22;6449;47.666;9.160;2023-03-21T09:45:00;10.90;99.90
12771;DHT22;6449;47.666;9.160;2023-03-21T09:50:04;11.10;99.90
12771;DHT22;6449;47.666;9.160;2023-03-21T09:55:14;11.20;99.90
12771;DHT22;6449;47.666;9.160;2023-03-21T10:00:16;11.40;99.90
12771;DHT22;6449;47.666;9.160;2023-03-21T10:05:19;11.70;99.90
12771;DHT22;6449;47.666;9.160;2023-03-21T10:10:17;12.00;99.90
12771;DHT22;6449;47.666;9.160;2023-03-21T10:15:18;12.10;99.90
12771;DHT22;6449;47.666;9.160;2023-03-21T10:20:16;12.20;99.90
12771;DHT22;6449;47.666;9.160;2023-03-21T10:25:15;12.30;99.90
12771;DHT22;6449;47.666;9.160;2023-03-21T10:30:25;12.40;99.90
12771;DHT22;6449;47.666;9.160;2023-03-21T10:35:24;12.50;99.90
12771;DHT22;6449;47.666;9.160;2023-03-21T10:40:18;12.60;99.90
12771;DHT22;6449;47.666;9.160;2023-03-21T10:45:17;12.60;99.90
12771;DHT22;6449;47.666;9.160;2023-03-21T10:50:16;12.70;99.90
12771;DHT22;6449;47.666;9.160;2023-03-21T10:55:20;12.50;99.90
12771;DHT22;6449;47.666;9.160;2023-03-21T11:00:20;12.60;99.90
12771;DHT22;6449;47.666;9.160;2023-03-21T11:05:21;12.50;99.90
12771;DHT22;6449;47.666;9.160;2023-03-21T11:10:27;12.40;99.90
12771;DHT22;6449;47.666;9.160;2023-03-21T11:15:28;12.50;99.90
12771;DHT22;6449;47.666;9.160;2023-03-21T11:20:25;12.60;99.90
12771;DHT22;6449;47.666;9.160;2023-03-21T11:25:30;12.70;99.90
12771;DHT22;6449;47.666;9.160;2023-03-21T11:30:28;12.70;99.90
12771;DHT22;6449;47.666;9.160;2023-03-21T11:35:31;12.80;99.90
12771;DHT22;6449;47.666;9.160;2023-03-21T11:40:28;12.90;99.90
12771;DHT22;6449;47.666;9.160;2023-03-21T11:45:24;12.90;99.90
12771;DHT22;6449;47.666;9.160;2023-03-21T11:50:28;13.00;99.90
12771;DHT22;6449;47.666;9.160;2023-03-21T11:55:31;13.00;99.90
12771;DHT22;6449;47.666;9.160;2023-03-21T12:00:36;13.00;99.90
12771;DHT22;6449;47.666;9.160;2023-03-21T12:05:36;13.20;99.90
12771;DHT22;6449;47.666;9.160;2023-03-21T12:15:48;13.40;99.90
12771;DHT22;6449;47.666;9.160;2023-03-21T13:01:58;14.00;99.90
12771;DHT22;6449;47.666;9.160;2023-03-21T13:07:00;14.10;99.90
12771;DHT22;6449;47.666;9.160;2023-03-21T13:11:58;14.10;99.90
12771;DHT22;6449;47.666;9.160;2023-03-21T13:17:05;14.20;99.90
12771;DHT22;6449;47.666;9.160;2023-03-21T13:22:06;14.10;99.90
12771;DHT22;6449;47.666;9.160;2023-03-21T13:27:17;14.20;99.90
12771;DHT22;6449;47.666;9.160;2023-03-21T13:32:26;14.10;99.90
12771;DHT22;6449;47.666;9.160;2023-03-21T13:37:22;14.30;99.90
12771;DHT22;6449;47.666;9.160;2023-03-21T13:42:21;14.30;99.90
12771;DHT22;6449;47.666;9.160;2023-03-21T13:47:38;14.30;99.90
12771;DHT22;6449;47.666;9.160;2023-03-21T13:52:34;14.40;99.90
12771;DHT22;6449;47.666;9.160;2023-03-21T13:57:37;14.50;99.90
12771;DHT22;6449;47.666;9.160;2023-03-21T14:02:33;14.40;99.90
12771;DHT22;6449;47.666;9.160;2023-03-21T14:07:31;14.30;99.90
12771;DHT22;6449;47.666;9.160;2023-03-21T14:12:29;14.20;99.90
12771;DHT22;6449;47.666;9.160;2023-03-21T14:17:29;14.10;99.90
12771;DHT22;6449;47.666;9.160;2023-03-21T14:22:25;14.00;99.90
12771;DHT22;6449;47.666;9.160;2023-03-21T14:28:38;13.70;99.90
12771;DHT22;6449;47.666;9.160;2023-03-21T14:33:24;13.60;99.90
12771;DHT22;6449;47.666;9.160;2023-03-21T14:38:55;13.70;99.90
12771;DHT22;6449;47.666;9.160;2023-03-21T14:44:11;13.60;99.90
12771;DHT22;6449;47.666;9.160;2023-03-21T14:49:20;13.60;99.90
12771;DHT22;6449;47.666;9.160;2023-03-21T14:54:19;13.50;99.90
12771;DHT22;6449;47.666;9.160;2023-03-21T14:59:15;13.50;99.90
12771;DHT22;6449;47.666;9.160;2023-03-21T15:04:13;13.50;99.90
12771;DHT22;6449;47.666;9.160;2023-03-21T15:09:15;13.30;99.90
12771;DHT22;6449;47.666;9.160;2023-03-21T15:14:12;13.30;99.90
12771;DHT22;6449;47.666;9.160;2023-03-21T15:19:10;13.30;99.90
12771;DHT22;6449;47.666;9.160;2023-03-21T15:24:10;13.20;99.90
12771;DHT22;6449;47.666;9.160;2023-03-21T15:29:08;13.20;99.90
12771;DHT22;6449;47.666;9.160;2023-03-21T15:34:03;13.10;99.90
12771;DHT22;6449;47.666;9.160;2023-03-21T15:39:00;13.20;99.90
12771;DHT22;6449;47.666;9.160;2023-03-21T15:44:11;13.10;99.90
12771;DHT22;6449;47.666;9.160;2023-03-21T15:49:18;13.10;99.90
12771;DHT22;6449;47.666;9.160;2023-03-21T15:54:22;13.00;99.90
12771;DHT22;6449;47.666;9.160;2023-03-21T15:59:23;12.90;99.90
12771;DHT22;6449;47.666;9.160;2023-03-21T16:04:22;12.90;99.90
12771;DHT22;6449;47.666;9.160;2023-03-21T16:09:26;12.80;99.90
12771;DHT22;6449;47.666;9.160;2023-03-21T16:15:01;12.80;99.90
12771;DHT22;6449;47.666;9.160;2023-03-21T16:19:57;12.70;99.90
12771;DHT22;6449;47.666;9.160;2023-03-21T16:24:51;12.70;99.90
12771;DHT22;6449;47.666;9.160;2023-03-21T16:29:45;12.70;99.90
12771;DHT22;6449;47.666;9.160;2023-03-21T16:34:39;12.70;99.90
12771;DHT22;6449;47.666;9.160;2023-03-21T16:39:35;12.60;99.90
12771;DHT22;6449;47.666;9.160;2023-03-21T16:44:28;12.50;99.90
12771;DHT22;6449;47.666;9.160;2023-03-21T16:49:24;12.40;99.90
12771;DHT22;6449;47.666;9.160;2023-03-21T16:54:19;12.30;99.90
12771;DHT22;6449;47.666;9.160;2023-03-21T16:59:15;12.20;99.90
12771;DHT22;6449;47.666;9.160;2023-03-21T17:04:08;12.10;99.90
12771;DHT22;6449;47.666;9.160;2023-03-21T17:09:02;12.00;99.90
12771;DHT22;6449;47.666;9.160;2023-03-21T17:13:56;11.90;99.90
12771;DHT22;6449;47.666;9.160;2023-03-21T17:18:51;11.80;99.90
12771;DHT22;6449;47.666;9.160;2023-03-21T17:23:45;11.80;99.90
12771;DHT22;6449;47.666;9.160;2023-03-21T17:28:39;11.70;99.90
12771;DHT22;6449;47.666;9.160;2023-03-21T17:33:33;11.60;99.90
12771;DHT22;6449;47.666;9.160;2023-03-21T17:38:28;11.50;99.90
12771;DHT22;6449;47.666;9.160;2023-03-21T17:43:22;11.40;99.90
12771;DHT22;6449;47.666;9.160;2023-03-21T17:48:15;11.40;99.90
12771;DHT22;6449;47.666;9.160;2023-03-21T17:53:09;11.40;99.90
12771;DHT22;6449;47.666;9.160;2023-03-21T17:58:04;11.30;99.90
12771;DHT22;6449;47.666;9.160;2023-03-21T18:02:58;11.20;99.90
12771;DHT22;6449;47.666;9.160;2023-03-21T18:07:54;11.20;99.90
12771;DHT22;6449;47.666;9.160;2023-03-21T18:13:05;11.10;99.90
12771;DHT22;6449;47.666;9.160;2023-03-21T18:17:59;11.10;99.90
12771;DHT22;6449;47.666;9.160;2023-03-21T18:22:53;11.10;99.90
12771;DHT22;6449;47.666;9.160;2023-03-21T18:27:46;11.00;99.90
12771;DHT22;6449;47.666;9.160;2023-03-21T18:33:01;11.00;99.90
12771;DHT22;6449;47.666;9.160;2023-03-21T18:37:54;11.00;99.90
12771;DHT22;6449;47.666;9.160;2023-03-21T18:42:48;11.00;99.90
12771;DHT22;6449;47.666;9.160;2023-03-21T18:48:04;10.90;99.90
12771;DHT22;6449;47.666;9.160;2023-03-21T18:52:59;10.80;99.90
12771;DHT22;6449;47.666;9.160;2023-03-21T18:57:52;10.80;99.90
12771;DHT22;6449;47.666;9.160;2023-03-21T19:02:48;10.80;99.90
12771;DHT22;6449;47.666;9.160;2023-03-21T19:08:04;10.70;99.90
12771;DHT22;6449;47.666;9.160;2023-03-21T19:12:58;10.80;99.90
12771;DHT22;6449;47.666;9.160;2023-03-21T19:17:54;10.70;99.90
12771;DHT22;6449;47.666;9.160;2023-03-21T19:23:17;10.70;99.90
12771;DHT22;6449;47.666;9.160;2023-03-21T19:28:12;10.70;99.90
12771;DHT22;6449;47.666;9.160;2023-03-21T19:33:06;10.60;99.90
12771;DHT22;6449;47.666;9.160;2023-03-21T19:38:00;10.50;99.90
12771;DHT22;6449;47.666;9.160;2023-03-21T19:42:56;10.50;99.90
12771;DHT22;6449;47.666;9.160;2023-03-21T19:47:49;10.50;99.90
12771;DHT22;6449;47.666;9.160;2023-03-21T19:52:43;10.40;99.90
12771;DHT22;6449;47.666;9.160;2023-03-21T19:57:37;10.30;99.90
12771;DHT22;6449;47.666;9.160;2023-03-21T20:02:32;10.10;99.90
12771;DHT22;6449;47.666;9.160;2023-03-21T20:07:27;10.10;99.90
12771;DHT22;6449;47.666;9.160;2023-03-21T20:12:22;10.10;99.90
12771;DHT22;6449;47.666;9.160;2023-03-21T20:17:21;10.10;99.90
12771;DHT22;6449;47.666;9.160;2023-03-21T20:22:16;10.10;99.90
12771;DHT22;6449;47.666;9.160;2023-03-21T20:27:28;10.10;99.90
12771;DHT22;6449;47.666;9.160;2023-03-21T20:32:22;10.10;99.90
12771;DHT22;6449;47.666;9.160;2023-03-21T20:37:17;10.00;99.90
12771;DHT22;6449;47.666;9.160;2023-03-21T20:42:11;10.00;99.90
12771;DHT22;6449;47.666;9.160;2023-03-21T20:47:04;9.90;99.90
12771;DHT22;6449;47.666;9.160;2023-03-21T20:51:58;9.80;99.90
12771;DHT22;6449;47.666;9.160;2023-03-21T20:57:13;9.80;99.90
12771;DHT22;6449;47.666;9.160;2023-03-21T21:02:09;9.70;99.90
12771;DHT22;6449;47.666;9.160;2023-03-21T21:07:03;9.60;99.90
12771;DHT22;6449;47.666;9.160;2023-03-21T21:11:57;9.60;99.90
12771;DHT22;6449;47.666;9.160;2023-03-21T21:17:01;9.60;99.90
12771;DHT22;6449;47.666;9.160;2023-03-21T21:22:15;9.70;99.90
12771;DHT22;6449;47.666;9.160;2023-03-21T21:27:09;9.80;99.90
12771;DHT22;6449;47.666;9.160;2023-03-21T21:32:04;9.80;99.90
12771;DHT22;6449;47.666;9.160;2023-03-21T21:36:57;9.70;99.90
12771;DHT22;6449;47.666;9.160;2023-03-21T21:41:51;9.70;99.90
12771;DHT22;6449;47.666;9.160;2023-03-21T21:46:44;9.70;99.90
12771;DHT22;6449;47.666;9.160;2023-03-21T21:51:39;9.50;99.90
12771;DHT22;6449;47.666;9.160;2023-03-21T21:56:33;9.40;99.90
12771;DHT22;6449;47.666;9.160;2023-03-21T22:01:29;9.30;99.90
12771;DHT22;6449;47.666;9.160;2023-03-21T22:06:25;9.30;99.90
12771;DHT22;6449;47.666;9.160;2023-03-21T22:11:20;9.30;99.90
12771;DHT22;6449;47.666;9.160;2023-03-21T22:16:13;9.30;99.90
12771;DHT22;6449;47.666;9.160;2023-03-21T22:21:07;9.20;99.90
12771;DHT22;6449;47.666;9.160;2023-03-21T22:26:01;9.00;99.90
12771;DHT22;6449;47.666;9.160;2023-03-21T22:30:56;8.90;99.90
12771;DHT22;6449;47.666;9.160;2023-03-21T22:35:50;8.70;99.90
12771;DHT22;6449;47.666;9.160;2023-03-21T22:40:44;8.70;99.90
12771;DHT22;6449;47.666;9.160;2023-03-21T22:45:37;8.80;99.90
12771;DHT22;6449;47.666;9.160;2023-03-21T22:50:34;8.80;99.90
12771;DHT22;6449;47.666;9.160;2023-03-21T22:55:27;9.00;99.90
12771;DHT22;6449;47.666;9.160;2023-03-21T23:00:20;9.00;99.90
12771;DHT22;6449;47.666;9.160;2023-03-21T23:05:14;9.20;99.90
12771;DHT22;6449;47.666;9.160;2023-03-21T23:10:10;9.30;99.90
12771;DHT22;6449;47.666;9.160;2023-03-21T23:15:05;9.40;99.90
12771;DHT22;6449;47.666;9.160;2023-03-21T23:20:00;9.40;99.90
12771;DHT22;6449;47.666;9.160;2023-03-21T23:24:56;9.40;99.90
12771;DHT22;6449;47.666;9.160;2023-03-21T23:29:51;9.30;99.90
12771;DHT22;6449;47.666;9.160;2023-03-21T23:34:45;9.00;99.90
12771;DHT22;6449;47.666;9.160;2023-03-21T23:39:41;8.90;99.90
12771;DHT22;6449;47.666;9.160;2023-03-21T23:44:36;9.00;99.90
12771;DHT22;6449;47.666;9.160;2023-03-21T23:49:31;9.10;99.90
12771;DHT22;6449;47.666;9.160;2023-03-21T23:54:24;9.10;99.90
12771;DHT22;6449;47.666;9.160;2023-03-21T23:59:18;8.90;99.90
